sensor_id;sensor_type;location;lat;lon;timestamp;P1;durP1;ratioP1;P2;durP2;ratioP2
20069;SDS011;10195;50.868;4.382;2023-04-24T00:01:52;25.87;;;12.27;;
20069;SDS011;10195;50.868;4.382;2023-04-24T00:04:17;23.23;;;11.10;;
20069;SDS011;10195;50.868;4.382;2023-04-24T00:06:43;24.23;;;11.97;;
20069;SDS011;10195;50.868;4.382;2023-04-24T00:09:09;29.97;;;11.63;;
20069;SDS011;10195;50.868;4.382;2023-04-24T00:11:38;27.63;;;12.10;;
20069;SDS011;10195;50.868;4.382;2023-04-24T00:14:03;17.63;;;10.33;;
20069;SDS011;10195;50.868;4.382;2023-04-24T00:16:29;23.97;;;11.73;;
20069;SDS011;10195;50.868;4.382;2023-04-24T00:18:54;23.43;;;12.33;;
20069;SDS011;10195;50.868;4.382;2023-04-24T00:21:20;22.63;;;12.60;;
20069;SDS011;10195;50.868;4.382;2023-04-24T00:23:46;25.87;;;11.17;;
20069;SDS011;10195;50.868;4.382;2023-04-24T00:26:12;20.67;;;12.27;;
20069;SDS011;10195;50.868;4.382;2023-04-24T00:28:38;25.10;;;11.70;;
20069;SDS011;10195;50.868;4.382;2023-04-24T00:31:03;21.60;;;11.37;;
20069;SDS011;10195;50.868;4.382;2023-04-24T00:33:29;25.67;;;12.20;;
20069;SDS011;10195;50.868;4.382;2023-04-24T00:35:55;27.97;;;12.10;;
20069;SDS011;10195;50.868;4.382;2023-04-24T00:38:21;26.60;;;11.23;;
20069;SDS011;10195;50.868;4.382;2023-04-24T00:40:47;18.70;;;12.10;;
20069;SDS011;10195;50.868;4.382;2023-04-24T00:43:15;21.70;;;11.73;;
20069;SDS011;10195;50.868;4.382;2023-04-24T00:45:41;22.17;;;10.60;;
20069;SDS011;10195;50.868;4.382;2023-04-24T00:48:07;24.37;;;11.10;;
20069;SDS011;10195;50.868;4.382;2023-04-24T00:50:33;21.77;;;12.00;;
20069;SDS011;10195;50.868;4.382;2023-04-24T00:53:00;18.77;;;11.97;;
20069;SDS011;10195;50.868;4.382;2023-04-24T00:55:26;21.23;;;11.77;;
20069;SDS011;10195;50.868;4.382;2023-04-24T00:57:52;20.13;;;11.17;;
20069;SDS011;10195;50.868;4.382;2023-04-24T01:00:18;18.80;;;12.20;;
20069;SDS011;10195;50.868;4.382;2023-04-24T01:02:44;20.43;;;11.90;;
20069;SDS011;10195;50.868;4.382;2023-04-24T01:05:11;25.00;;;11.73;;
20069;SDS011;10195;50.868;4.382;2023-04-24T01:07:38;23.00;;;12.20;;
20069;SDS011;10195;50.868;4.382;2023-04-24T01:10:06;24.43;;;12.30;;
20069;SDS011;10195;50.868;4.382;2023-04-24T01:12:33;21.07;;;11.67;;
20069;SDS011;10195;50.868;4.382;2023-04-24T01:14:59;22.33;;;12.57;;
20069;SDS011;10195;50.868;4.382;2023-04-24T01:17:25;22.70;;;13.00;;
20069;SDS011;10195;50.868;4.382;2023-04-24T01:19:50;27.07;;;12.90;;
20069;SDS011;10195;50.868;4.382;2023-04-24T01:22:21;19.33;;;11.30;;
20069;SDS011;10195;50.868;4.382;2023-04-24T01:24:47;27.60;;;12.47;;
20069;SDS011;10195;50.868;4.382;2023-04-24T01:27:13;24.77;;;13.67;;
20069;SDS011;10195;50.868;4.382;2023-04-24T01:29:39;21.63;;;11.77;;
20069;SDS011;10195;50.868;4.382;2023-04-24T01:32:06;19.87;;;11.80;;
20069;SDS011;10195;50.868;4.382;2023-04-24T01:34:31;20.83;;;11.90;;
20069;SDS011;10195;50.868;4.382;2023-04-24T01:36:58;21.83;;;11.97;;
20069;SDS011;10195;50.868;4.382;2023-04-24T01:39:24;19.40;;;11.70;;
20069;SDS011;10195;50.868;4.382;2023-04-24T01:41:51;22.33;;;11.23;;
20069;SDS011;10195;50.868;4.382;2023-04-24T01:44:17;21.47;;;11.27;;
20069;SDS011;10195;50.868;4.382;2023-04-24T01:46:43;17.97;;;10.73;;
20069;SDS011;10195;50.868;4.382;2023-04-24T01:49:09;19.73;;;10.17;;
20069;SDS011;10195;50.868;4.382;2023-04-24T01:51:35;19.63;;;10.40;;
20069;SDS011;10195;50.868;4.382;2023-04-24T01:54:01;15.60;;;10.93;;
20069;SDS011;10195;50.868;4.382;2023-04-24T01:56:28;14.63;;;9.90;;
20069;SDS011;10195;50.868;4.382;2023-04-24T01:58:57;14.90;;;9.33;;
20069;SDS011;10195;50.868;4.382;2023-04-24T02:01:24;18.37;;;9.30;;
20069;SDS011;10195;50.868;4.382;2023-04-24T02:03:50;17.00;;;10.57;;
20069;SDS011;10195;50.868;4.382;2023-04-24T02:06:16;17.40;;;10.33;;
20069;SDS011;10195;50.868;4.382;2023-04-24T02:08:42;17.90;;;10.70;;
20069;SDS011;10195;50.868;4.382;2023-04-24T02:11:10;17.03;;;10.83;;
20069;SDS011;10195;50.868;4.382;2023-04-24T02:13:36;14.97;;;10.47;;
20069;SDS011;10195;50.868;4.382;2023-04-24T02:16:02;19.10;;;11.07;;
20069;SDS011;10195;50.868;4.382;2023-04-24T02:18:27;13.40;;;10.23;;
20069;SDS011;10195;50.868;4.382;2023-04-24T02:20:53;21.83;;;10.93;;
20069;SDS011;10195;50.868;4.382;2023-04-24T02:23:19;21.50;;;11.67;;
20069;SDS011;10195;50.868;4.382;2023-04-24T02:25:45;21.30;;;11.10;;
20069;SDS011;10195;50.868;4.382;2023-04-24T02:28:10;19.37;;;10.97;;
20069;SDS011;10195;50.868;4.382;2023-04-24T02:30:36;18.27;;;9.50;;
20069;SDS011;10195;50.868;4.382;2023-04-24T02:33:02;20.33;;;10.40;;
20069;SDS011;10195;50.868;4.382;2023-04-24T02:35:28;17.30;;;9.37;;
20069;SDS011;10195;50.868;4.382;2023-04-24T02:37:53;17.90;;;10.97;;
20069;SDS011;10195;50.868;4.382;2023-04-24T02:40:19;17.90;;;10.70;;
20069;SDS011;10195;50.868;4.382;2023-04-24T02:42:45;14.70;;;9.50;;
20069;SDS011;10195;50.868;4.382;2023-04-24T02:45:10;17.30;;;11.00;;
20069;SDS011;10195;50.868;4.382;2023-04-24T02:47:36;20.87;;;11.17;;
20069;SDS011;10195;50.868;4.382;2023-04-24T02:50:02;17.10;;;11.67;;
20069;SDS011;10195;50.868;4.382;2023-04-24T02:52:28;17.17;;;11.43;;
20069;SDS011;10195;50.868;4.382;2023-04-24T02:54:54;23.77;;;12.17;;
20069;SDS011;10195;50.868;4.382;2023-04-24T02:57:19;16.83;;;9.73;;
20069;SDS011;10195;50.868;4.382;2023-04-24T02:59:45;18.60;;;11.13;;
20069;SDS011;10195;50.868;4.382;2023-04-24T03:02:11;19.67;;;10.57;;
20069;SDS011;10195;50.868;4.382;2023-04-24T03:04:37;13.33;;;10.37;;
20069;SDS011;10195;50.868;4.382;2023-04-24T03:07:02;19.97;;;11.43;;
20069;SDS011;10195;50.868;4.382;2023-04-24T03:09:29;16.43;;;8.67;;
20069;SDS011;10195;50.868;4.382;2023-04-24T03:11:55;22.03;;;11.23;;
20069;SDS011;10195;50.868;4.382;2023-04-24T03:14:21;18.90;;;10.23;;
20069;SDS011;10195;50.868;4.382;2023-04-24T03:16:47;12.10;;;8.17;;
20069;SDS011;10195;50.868;4.382;2023-04-24T03:19:12;18.30;;;10.10;;
20069;SDS011;10195;50.868;4.382;2023-04-24T03:21:38;18.47;;;10.33;;
20069;SDS011;10195;50.868;4.382;2023-04-24T03:24:06;15.30;;;9.97;;
20069;SDS011;10195;50.868;4.382;2023-04-24T03:26:33;13.30;;;9.23;;
20069;SDS011;10195;50.868;4.382;2023-04-24T03:28:59;15.97;;;10.10;;
20069;SDS011;10195;50.868;4.382;2023-04-24T03:31:24;13.83;;;9.53;;
20069;SDS011;10195;50.868;4.382;2023-04-24T03:33:50;15.57;;;9.73;;
20069;SDS011;10195;50.868;4.382;2023-04-24T03:36:16;16.63;;;9.20;;
20069;SDS011;10195;50.868;4.382;2023-04-24T03:38:42;10.97;;;7.93;;
20069;SDS011;10195;50.868;4.382;2023-04-24T03:41:08;12.77;;;8.60;;
20069;SDS011;10195;50.868;4.382;2023-04-24T03:43:33;13.90;;;7.43;;
20069;SDS011;10195;50.868;4.382;2023-04-24T03:45:59;14.37;;;7.40;;
20069;SDS011;10195;50.868;4.382;2023-04-24T03:48:25;13.13;;;7.97;;
20069;SDS011;10195;50.868;4.382;2023-04-24T03:50:51;10.70;;;6.77;;
20069;SDS011;10195;50.868;4.382;2023-04-24T03:53:16;10.03;;;6.70;;
20069;SDS011;10195;50.868;4.382;2023-04-24T03:55:42;10.70;;;6.87;;
20069;SDS011;10195;50.868;4.382;2023-04-24T03:58:08;8.37;;;5.73;;
20069;SDS011;10195;50.868;4.382;2023-04-24T04:00:33;9.40;;;6.20;;
20069;SDS011;10195;50.868;4.382;2023-04-24T04:02:59;8.47;;;4.97;;
20069;SDS011;10195;50.868;4.382;2023-04-24T04:05:26;11.07;;;6.60;;
20069;SDS011;10195;50.868;4.382;2023-04-24T04:07:51;13.07;;;6.30;;
20069;SDS011;10195;50.868;4.382;2023-04-24T04:10:17;7.57;;;5.53;;
20069;SDS011;10195;50.868;4.382;2023-04-24T04:12:43;7.87;;;5.70;;
20069;SDS011;10195;50.868;4.382;2023-04-24T04:15:08;10.23;;;5.80;;
20069;SDS011;10195;50.868;4.382;2023-04-24T04:17:34;9.57;;;6.10;;
20069;SDS011;10195;50.868;4.382;2023-04-24T04:20:00;7.53;;;5.20;;
20069;SDS011;10195;50.868;4.382;2023-04-24T04:22:26;9.00;;;5.77;;
20069;SDS011;10195;50.868;4.382;2023-04-24T04:24:52;10.57;;;6.37;;
20069;SDS011;10195;50.868;4.382;2023-04-24T04:27:17;8.40;;;6.17;;
20069;SDS011;10195;50.868;4.382;2023-04-24T04:29:44;12.07;;;6.70;;
20069;SDS011;10195;50.868;4.382;2023-04-24T04:32:09;10.23;;;6.10;;
20069;SDS011;10195;50.868;4.382;2023-04-24T04:34:35;10.97;;;5.90;;
20069;SDS011;10195;50.868;4.382;2023-04-24T04:37:02;10.67;;;6.60;;
20069;SDS011;10195;50.868;4.382;2023-04-24T04:39:28;8.63;;;5.50;;
20069;SDS011;10195;50.868;4.382;2023-04-24T04:41:55;10.53;;;5.70;;
20069;SDS011;10195;50.868;4.382;2023-04-24T04:44:21;9.43;;;5.97;;
20069;SDS011;10195;50.868;4.382;2023-04-24T04:46:47;10.10;;;6.20;;
20069;SDS011;10195;50.868;4.382;2023-04-24T04:49:12;6.77;;;5.47;;
20069;SDS011;10195;50.868;4.382;2023-04-24T04:51:41;8.63;;;5.83;;
20069;SDS011;10195;50.868;4.382;2023-04-24T04:54:07;10.27;;;6.37;;
20069;SDS011;10195;50.868;4.382;2023-04-24T04:56:32;13.53;;;7.50;;
20069;SDS011;10195;50.868;4.382;2023-04-24T04:59:01;12.90;;;7.60;;
20069;SDS011;10195;50.868;4.382;2023-04-24T05:01:26;13.73;;;5.80;;
20069;SDS011;10195;50.868;4.382;2023-04-24T05:03:52;15.80;;;8.07;;
20069;SDS011;10195;50.868;4.382;2023-04-24T05:06:18;11.93;;;8.03;;
20069;SDS011;10195;50.868;4.382;2023-04-24T05:08:44;10.30;;;6.70;;
20069;SDS011;10195;50.868;4.382;2023-04-24T05:11:10;11.67;;;8.20;;
20069;SDS011;10195;50.868;4.382;2023-04-24T05:13:35;17.73;;;9.90;;
20069;SDS011;10195;50.868;4.382;2023-04-24T05:16:01;15.33;;;9.40;;
20069;SDS011;10195;50.868;4.382;2023-04-24T05:18:28;19.13;;;10.57;;
20069;SDS011;10195;50.868;4.382;2023-04-24T05:20:55;22.27;;;10.47;;
20069;SDS011;10195;50.868;4.382;2023-04-24T05:23:21;17.33;;;9.67;;
20069;SDS011;10195;50.868;4.382;2023-04-24T05:25:46;14.83;;;8.80;;
20069;SDS011;10195;50.868;4.382;2023-04-24T05:28:13;17.40;;;9.33;;
20069;SDS011;10195;50.868;4.382;2023-04-24T05:30:40;15.27;;;10.20;;
20069;SDS011;10195;50.868;4.382;2023-04-24T05:33:06;20.73;;;10.40;;
20069;SDS011;10195;50.868;4.382;2023-04-24T05:35:33;17.33;;;10.20;;
20069;SDS011;10195;50.868;4.382;2023-04-24T05:37:59;18.23;;;10.63;;
20069;SDS011;10195;50.868;4.382;2023-04-24T05:40:25;21.63;;;10.87;;
20069;SDS011;10195;50.868;4.382;2023-04-24T05:42:50;17.00;;;10.40;;
20069;SDS011;10195;50.868;4.382;2023-04-24T05:45:16;17.77;;;11.27;;
20069;SDS011;10195;50.868;4.382;2023-04-24T05:47:43;15.13;;;9.30;;
20069;SDS011;10195;50.868;4.382;2023-04-24T05:50:10;18.43;;;10.77;;
20069;SDS011;10195;50.868;4.382;2023-04-24T05:52:36;15.37;;;8.33;;
20069;SDS011;10195;50.868;4.382;2023-04-24T05:55:02;18.13;;;9.97;;
20069;SDS011;10195;50.868;4.382;2023-04-24T05:57:27;22.70;;;11.87;;
20069;SDS011;10195;50.868;4.382;2023-04-24T05:59:53;18.80;;;10.40;;
20069;SDS011;10195;50.868;4.382;2023-04-24T06:02:19;17.13;;;9.07;;
20069;SDS011;10195;50.868;4.382;2023-04-24T06:04:45;20.27;;;11.43;;
20069;SDS011;10195;50.868;4.382;2023-04-24T06:07:10;19.90;;;10.80;;
20069;SDS011;10195;50.868;4.382;2023-04-24T06:09:37;13.93;;;8.27;;
20069;SDS011;10195;50.868;4.382;2023-04-24T06:12:03;24.33;;;11.60;;
20069;SDS011;10195;50.868;4.382;2023-04-24T06:14:29;23.63;;;12.23;;
20069;SDS011;10195;50.868;4.382;2023-04-24T06:16:54;25.20;;;10.93;;
20069;SDS011;10195;50.868;4.382;2023-04-24T06:19:20;19.00;;;10.57;;
20069;SDS011;10195;50.868;4.382;2023-04-24T06:21:46;23.40;;;10.03;;
20069;SDS011;10195;50.868;4.382;2023-04-24T06:24:13;18.47;;;10.57;;
20069;SDS011;10195;50.868;4.382;2023-04-24T06:26:41;24.03;;;10.80;;
20069;SDS011;10195;50.868;4.382;2023-04-24T06:29:06;19.83;;;11.30;;
20069;SDS011;10195;50.868;4.382;2023-04-24T06:31:32;20.40;;;11.90;;
20069;SDS011;10195;50.868;4.382;2023-04-24T06:34:02;22.67;;;11.40;;
20069;SDS011;10195;50.868;4.382;2023-04-24T06:36:28;21.40;;;12.57;;
20069;SDS011;10195;50.868;4.382;2023-04-24T06:38:54;22.73;;;13.17;;
20069;SDS011;10195;50.868;4.382;2023-04-24T06:41:19;31.97;;;13.03;;
20069;SDS011;10195;50.868;4.382;2023-04-24T06:43:45;22.17;;;12.23;;
20069;SDS011;10195;50.868;4.382;2023-04-24T06:46:10;20.67;;;12.00;;
20069;SDS011;10195;50.868;4.382;2023-04-24T06:48:37;27.10;;;12.97;;
20069;SDS011;10195;50.868;4.382;2023-04-24T06:51:02;28.33;;;13.53;;
20069;SDS011;10195;50.868;4.382;2023-04-24T06:53:28;31.30;;;14.47;;
20069;SDS011;10195;50.868;4.382;2023-04-24T06:55:54;33.63;;;14.50;;
20069;SDS011;10195;50.868;4.382;2023-04-24T06:58:20;28.10;;;14.87;;
20069;SDS011;10195;50.868;4.382;2023-04-24T07:00:46;29.93;;;13.47;;
20069;SDS011;10195;50.868;4.382;2023-04-24T07:03:11;25.43;;;14.07;;
20069;SDS011;10195;50.868;4.382;2023-04-24T07:05:37;34.13;;;13.77;;
20069;SDS011;10195;50.868;4.382;2023-04-24T07:08:03;27.57;;;14.07;;
20069;SDS011;10195;50.868;4.382;2023-04-24T07:10:29;31.17;;;15.17;;
20069;SDS011;10195;50.868;4.382;2023-04-24T07:12:55;29.63;;;14.40;;
20069;SDS011;10195;50.868;4.382;2023-04-24T07:15:21;15.93;;;8.60;;
20069;SDS011;10195;50.868;4.382;2023-04-24T07:17:49;22.57;;;13.43;;
20069;SDS011;10195;50.868;4.382;2023-04-24T07:20:15;27.90;;;11.73;;
20069;SDS011;10195;50.868;4.382;2023-04-24T07:22:43;20.67;;;12.00;;
20069;SDS011;10195;50.868;4.382;2023-04-24T07:25:10;23.23;;;10.50;;
20069;SDS011;10195;50.868;4.382;2023-04-24T07:27:36;24.70;;;12.27;;
20069;SDS011;10195;50.868;4.382;2023-04-24T07:30:05;21.00;;;11.30;;
20069;SDS011;10195;50.868;4.382;2023-04-24T07:32:31;23.57;;;10.07;;
20069;SDS011;10195;50.868;4.382;2023-04-24T07:35:00;19.73;;;10.13;;
20069;SDS011;10195;50.868;4.382;2023-04-24T07:37:25;25.80;;;11.17;;
20069;SDS011;10195;50.868;4.382;2023-04-24T07:39:52;17.77;;;9.30;;
20069;SDS011;10195;50.868;4.382;2023-04-24T07:42:18;16.33;;;8.53;;
20069;SDS011;10195;50.868;4.382;2023-04-24T07:44:44;15.10;;;7.73;;
20069;SDS011;10195;50.868;4.382;2023-04-24T07:47:11;16.53;;;7.10;;
20069;SDS011;10195;50.868;4.382;2023-04-24T07:49:37;17.87;;;7.57;;
20069;SDS011;10195;50.868;4.382;2023-04-24T07:52:03;13.27;;;6.07;;
20069;SDS011;10195;50.868;4.382;2023-04-24T07:54:29;15.67;;;8.17;;
20069;SDS011;10195;50.868;4.382;2023-04-24T07:56:54;22.77;;;8.60;;
20069;SDS011;10195;50.868;4.382;2023-04-24T07:59:20;18.87;;;8.10;;
20069;SDS011;10195;50.868;4.382;2023-04-24T08:01:46;18.47;;;9.47;;
20069;SDS011;10195;50.868;4.382;2023-04-24T08:04:11;19.83;;;9.50;;
20069;SDS011;10195;50.868;4.382;2023-04-24T08:06:37;21.43;;;7.87;;
20069;SDS011;10195;50.868;4.382;2023-04-24T08:09:03;19.40;;;8.97;;
20069;SDS011;10195;50.868;4.382;2023-04-24T08:11:28;16.53;;;8.03;;
20069;SDS011;10195;50.868;4.382;2023-04-24T08:13:55;24.93;;;8.37;;
20069;SDS011;10195;50.868;4.382;2023-04-24T08:16:22;22.47;;;9.03;;
20069;SDS011;10195;50.868;4.382;2023-04-24T08:18:48;20.90;;;8.60;;
20069;SDS011;10195;50.868;4.382;2023-04-24T08:21:15;19.77;;;8.20;;
20069;SDS011;10195;50.868;4.382;2023-04-24T08:23:45;17.03;;;7.37;;
20069;SDS011;10195;50.868;4.382;2023-04-24T08:26:11;16.80;;;7.47;;
20069;SDS011;10195;50.868;4.382;2023-04-24T08:28:37;18.80;;;8.23;;
20069;SDS011;10195;50.868;4.382;2023-04-24T08:31:03;17.63;;;6.77;;
20069;SDS011;10195;50.868;4.382;2023-04-24T08:33:29;18.70;;;6.53;;
20069;SDS011;10195;50.868;4.382;2023-04-24T08:35:59;20.13;;;6.53;;
20069;SDS011;10195;50.868;4.382;2023-04-24T08:38:27;18.40;;;6.97;;
20069;SDS011;10195;50.868;4.382;2023-04-24T08:40:52;19.17;;;6.63;;
20069;SDS011;10195;50.868;4.382;2023-04-24T08:43:18;23.53;;;8.03;;
20069;SDS011;10195;50.868;4.382;2023-04-24T08:45:47;16.93;;;6.97;;
20069;SDS011;10195;50.868;4.382;2023-04-24T08:48:13;21.17;;;7.93;;
20069;SDS011;10195;50.868;4.382;2023-04-24T08:50:39;11.13;;;4.83;;
20069;SDS011;10195;50.868;4.382;2023-04-24T08:53:08;15.03;;;5.70;;
20069;SDS011;10195;50.868;4.382;2023-04-24T08:55:35;15.67;;;5.40;;
20069;SDS011;10195;50.868;4.382;2023-04-24T08:58:02;16.03;;;4.83;;
20069;SDS011;10195;50.868;4.382;2023-04-24T09:00:29;15.50;;;5.20;;
20069;SDS011;10195;50.868;4.382;2023-04-24T09:02:55;15.93;;;4.60;;
20069;SDS011;10195;50.868;4.382;2023-04-24T09:05:22;14.83;;;4.87;;
20069;SDS011;10195;50.868;4.382;2023-04-24T09:07:53;10.63;;;4.60;;
20069;SDS011;10195;50.868;4.382;2023-04-24T09:10:20;10.33;;;5.10;;
20069;SDS011;10195;50.868;4.382;2023-04-24T09:12:49;13.33;;;4.73;;
20069;SDS011;10195;50.868;4.382;2023-04-24T09:15:16;10.27;;;4.03;;
20069;SDS011;10195;50.868;4.382;2023-04-24T09:17:43;10.20;;;4.00;;
20069;SDS011;10195;50.868;4.382;2023-04-24T09:20:10;13.30;;;4.03;;
20069;SDS011;10195;50.868;4.382;2023-04-24T09:22:36;6.80;;;2.80;;
20069;SDS011;10195;50.868;4.382;2023-04-24T09:25:08;6.50;;;3.20;;
20069;SDS011;10195;50.868;4.382;2023-04-24T09:27:38;9.13;;;3.60;;
20069;SDS011;10195;50.868;4.382;2023-04-24T09:30:10;9.90;;;3.93;;
20069;SDS011;10195;50.868;4.382;2023-04-24T09:32:36;11.43;;;3.73;;
20069;SDS011;10195;50.868;4.382;2023-04-24T09:35:12;11.77;;;4.47;;
20069;SDS011;10195;50.868;4.382;2023-04-24T09:37:47;12.47;;;4.37;;
20069;SDS011;10195;50.868;4.382;2023-04-24T09:40:20;14.20;;;4.20;;
20069;SDS011;10195;50.868;4.382;2023-04-24T09:42:55;10.03;;;2.83;;
20069;SDS011;10195;50.868;4.382;2023-04-24T09:45:22;13.80;;;5.20;;
20069;SDS011;10195;50.868;4.382;2023-04-24T09:47:53;7.63;;;3.60;;
20069;SDS011;10195;50.868;4.382;2023-04-24T09:50:20;18.97;;;4.77;;
20069;SDS011;10195;50.868;4.382;2023-04-24T09:52:47;7.37;;;3.33;;
20069;SDS011;10195;50.868;4.382;2023-04-24T09:55:22;6.67;;;3.50;;
20069;SDS011;10195;50.868;4.382;2023-04-24T09:57:51;7.60;;;3.43;;
20069;SDS011;10195;50.868;4.382;2023-04-24T10:00:21;11.23;;;4.00;;
20069;SDS011;10195;50.868;4.382;2023-04-24T10:02:55;12.90;;;3.90;;
20069;SDS011;10195;50.868;4.382;2023-04-24T10:05:37;7.20;;;3.17;;
20069;SDS011;10195;50.868;4.382;2023-04-24T10:08:10;8.27;;;3.70;;
20069;SDS011;10195;50.868;4.382;2023-04-24T10:10:40;8.10;;;2.80;;
20069;SDS011;10195;50.868;4.382;2023-04-24T10:13:08;7.17;;;3.47;;
20069;SDS011;10195;50.868;4.382;2023-04-24T10:15:35;8.23;;;3.60;;
20069;SDS011;10195;50.868;4.382;2023-04-24T10:18:02;10.43;;;2.93;;
20069;SDS011;10195;50.868;4.382;2023-04-24T10:20:31;7.37;;;3.87;;
20069;SDS011;10195;50.868;4.382;2023-04-24T10:22:58;12.40;;;4.07;;
20069;SDS011;10195;50.868;4.382;2023-04-24T10:25:25;13.37;;;5.17;;
20069;SDS011;10195;50.868;4.382;2023-04-24T10:27:57;13.47;;;4.50;;
20069;SDS011;10195;50.868;4.382;2023-04-24T10:30:25;10.80;;;4.40;;
20069;SDS011;10195;50.868;4.382;2023-04-24T10:32:52;9.57;;;4.43;;
20069;SDS011;10195;50.868;4.382;2023-04-24T10:35:19;10.97;;;4.20;;
20069;SDS011;10195;50.868;4.382;2023-04-24T10:38:03;9.07;;;3.97;;
20069;SDS011;10195;50.868;4.382;2023-04-24T10:40:34;8.30;;;3.77;;
20069;SDS011;10195;50.868;4.382;2023-04-24T10:43:07;10.63;;;3.73;;
20069;SDS011;10195;50.868;4.382;2023-04-24T10:45:37;8.73;;;3.93;;
20069;SDS011;10195;50.868;4.382;2023-04-24T10:48:05;11.80;;;4.53;;
20069;SDS011;10195;50.868;4.382;2023-04-24T10:50:51;10.00;;;3.83;;
20069;SDS011;10195;50.868;4.382;2023-04-24T10:53:21;9.67;;;4.77;;
20069;SDS011;10195;50.868;4.382;2023-04-24T10:56:00;8.67;;;4.40;;
20069;SDS011;10195;50.868;4.382;2023-04-24T10:58:41;27.13;;;12.30;;
20069;SDS011;10195;50.868;4.382;2023-04-24T11:01:26;15.63;;;5.37;;
20069;SDS011;10195;50.868;4.382;2023-04-24T11:03:54;12.07;;;5.10;;
20069;SDS011;10195;50.868;4.382;2023-04-24T11:06:30;10.50;;;4.73;;
20069;SDS011;10195;50.868;4.382;2023-04-24T11:09:01;15.27;;;5.97;;
20069;SDS011;10195;50.868;4.382;2023-04-24T11:11:32;6.80;;;3.23;;
20069;SDS011;10195;50.868;4.382;2023-04-24T11:16:35;6.53;;;3.67;;
20069;SDS011;10195;50.868;4.382;2023-04-24T11:19:02;9.30;;;3.83;;
20069;SDS011;10195;50.868;4.382;2023-04-24T11:21:31;18.00;;;4.57;;
20069;SDS011;10195;50.868;4.382;2023-04-24T11:26:48;7.13;;;3.70;;
20069;SDS011;10195;50.868;4.382;2023-04-24T11:29:13;8.80;;;3.87;;
20069;SDS011;10195;50.868;4.382;2023-04-24T11:31:40;7.93;;;4.47;;
20069;SDS011;10195;50.868;4.382;2023-04-24T11:34:10;10.83;;;4.33;;
20069;SDS011;10195;50.868;4.382;2023-04-24T11:36:38;11.30;;;4.57;;
20069;SDS011;10195;50.868;4.382;2023-04-24T11:39:05;7.70;;;4.10;;
20069;SDS011;10195;50.868;4.382;2023-04-24T11:41:31;7.83;;;3.80;;
20069;SDS011;10195;50.868;4.382;2023-04-24T11:43:58;12.27;;;5.60;;
20069;SDS011;10195;50.868;4.382;2023-04-24T11:46:28;10.83;;;5.00;;
20069;SDS011;10195;50.868;4.382;2023-04-24T11:48:55;8.73;;;4.83;;
20069;SDS011;10195;50.868;4.382;2023-04-24T11:51:25;13.73;;;4.80;;
20069;SDS011;10195;50.868;4.382;2023-04-24T11:53:55;6.53;;;4.43;;
20069;SDS011;10195;50.868;4.382;2023-04-24T11:56:22;10.47;;;5.43;;
20069;SDS011;10195;50.868;4.382;2023-04-24T11:58:48;8.33;;;4.93;;
20069;SDS011;10195;50.868;4.382;2023-04-24T12:01:16;8.60;;;5.07;;
20069;SDS011;10195;50.868;4.382;2023-04-24T12:03:46;14.00;;;5.90;;
20069;SDS011;10195;50.868;4.382;2023-04-24T12:06:14;14.20;;;7.67;;
20069;SDS011;10195;50.868;4.382;2023-04-24T12:08:39;12.23;;;6.53;;
20069;SDS011;10195;50.868;4.382;2023-04-24T12:11:06;10.33;;;4.93;;
20069;SDS011;10195;50.868;4.382;2023-04-24T12:13:32;9.07;;;3.90;;
20069;SDS011;10195;50.868;4.382;2023-04-24T12:15:59;10.03;;;5.00;;
20069;SDS011;10195;50.868;4.382;2023-04-24T12:18:26;14.03;;;4.77;;
20069;SDS011;10195;50.868;4.382;2023-04-24T12:20:53;9.57;;;4.77;;
20069;SDS011;10195;50.868;4.382;2023-04-24T12:23:35;8.33;;;3.07;;
20069;SDS011;10195;50.868;4.382;2023-04-24T12:26:03;7.90;;;4.30;;
20069;SDS011;10195;50.868;4.382;2023-04-24T12:28:36;7.70;;;4.03;;
20069;SDS011;10195;50.868;4.382;2023-04-24T12:31:03;8.33;;;4.10;;
20069;SDS011;10195;50.868;4.382;2023-04-24T12:33:34;9.30;;;4.20;;
20069;SDS011;10195;50.868;4.382;2023-04-24T12:36:01;10.17;;;4.63;;
20069;SDS011;10195;50.868;4.382;2023-04-24T12:38:28;8.47;;;3.87;;
20069;SDS011;10195;50.868;4.382;2023-04-24T12:41:05;11.00;;;4.03;;
20069;SDS011;10195;50.868;4.382;2023-04-24T12:43:32;9.30;;;4.03;;
20069;SDS011;10195;50.868;4.382;2023-04-24T12:45:59;7.77;;;3.63;;
20069;SDS011;10195;50.868;4.382;2023-04-24T12:48:28;13.10;;;3.80;;
20069;SDS011;10195;50.868;4.382;2023-04-24T12:50:59;5.70;;;3.10;;
20069;SDS011;10195;50.868;4.382;2023-04-24T12:53:28;4.27;;;3.30;;
20069;SDS011;10195;50.868;4.382;2023-04-24T12:55:56;7.07;;;3.53;;
20069;SDS011;10195;50.868;4.382;2023-04-24T12:58:22;4.77;;;3.17;;
20069;SDS011;10195;50.868;4.382;2023-04-24T13:00:48;7.50;;;4.00;;
20069;SDS011;10195;50.868;4.382;2023-04-24T13:03:14;10.07;;;3.40;;
20069;SDS011;10195;50.868;4.382;2023-04-24T13:05:40;8.33;;;3.80;;
20069;SDS011;10195;50.868;4.382;2023-04-24T13:08:07;9.80;;;3.80;;
20069;SDS011;10195;50.868;4.382;2023-04-24T13:10:32;9.87;;;3.80;;
20069;SDS011;10195;50.868;4.382;2023-04-24T13:12:59;7.33;;;3.47;;
20069;SDS011;10195;50.868;4.382;2023-04-24T13:15:24;6.97;;;3.70;;
20069;SDS011;10195;50.868;4.382;2023-04-24T13:17:52;6.00;;;3.27;;
20069;SDS011;10195;50.868;4.382;2023-04-24T13:20:18;5.23;;;3.53;;
20069;SDS011;10195;50.868;4.382;2023-04-24T13:22:44;8.07;;;3.30;;
20069;SDS011;10195;50.868;4.382;2023-04-24T13:25:09;4.90;;;2.63;;
20069;SDS011;10195;50.868;4.382;2023-04-24T13:27:35;12.30;;;3.90;;
20069;SDS011;10195;50.868;4.382;2023-04-24T13:30:03;9.87;;;3.50;;
20069;SDS011;10195;50.868;4.382;2023-04-24T13:32:29;7.87;;;2.63;;
20069;SDS011;10195;50.868;4.382;2023-04-24T13:34:56;6.67;;;3.27;;
20069;SDS011;10195;50.868;4.382;2023-04-24T13:37:21;3.47;;;2.60;;
20069;SDS011;10195;50.868;4.382;2023-04-24T13:39:47;6.27;;;3.13;;
20069;SDS011;10195;50.868;4.382;2023-04-24T13:42:14;6.13;;;2.63;;
20069;SDS011;10195;50.868;4.382;2023-04-24T13:44:39;5.53;;;2.87;;
20069;SDS011;10195;50.868;4.382;2023-04-24T13:47:05;6.57;;;3.27;;
20069;SDS011;10195;50.868;4.382;2023-04-24T13:49:32;7.33;;;3.00;;
20069;SDS011;10195;50.868;4.382;2023-04-24T13:51:58;4.60;;;2.80;;
20069;SDS011;10195;50.868;4.382;2023-04-24T13:54:23;8.27;;;3.00;;
20069;SDS011;10195;50.868;4.382;2023-04-24T13:56:50;5.67;;;2.80;;
20069;SDS011;10195;50.868;4.382;2023-04-24T13:59:17;6.10;;;3.40;;
20069;SDS011;10195;50.868;4.382;2023-04-24T14:01:44;5.40;;;2.63;;
20069;SDS011;10195;50.868;4.382;2023-04-24T14:04:10;6.17;;;2.60;;
20069;SDS011;10195;50.868;4.382;2023-04-24T14:06:36;5.20;;;2.70;;
20069;SDS011;10195;50.868;4.382;2023-04-24T14:09:01;6.83;;;2.63;;
20069;SDS011;10195;50.868;4.382;2023-04-24T14:11:27;7.57;;;2.40;;
20069;SDS011;10195;50.868;4.382;2023-04-24T14:13:54;6.53;;;2.10;;
20069;SDS011;10195;50.868;4.382;2023-04-24T14:16:21;6.90;;;2.83;;
20069;SDS011;10195;50.868;4.382;2023-04-24T14:18:47;5.37;;;2.63;;
20069;SDS011;10195;50.868;4.382;2023-04-24T14:21:12;8.87;;;3.10;;
20069;SDS011;10195;50.868;4.382;2023-04-24T14:23:38;3.47;;;2.10;;
20069;SDS011;10195;50.868;4.382;2023-04-24T14:26:04;5.07;;;2.13;;
20069;SDS011;10195;50.868;4.382;2023-04-24T14:28:30;6.47;;;2.47;;
20069;SDS011;10195;50.868;4.382;2023-04-24T14:30:55;7.00;;;2.40;;
20069;SDS011;10195;50.868;4.382;2023-04-24T14:33:21;7.70;;;2.83;;
20069;SDS011;10195;50.868;4.382;2023-04-24T14:35:47;13.20;;;6.50;;
20069;SDS011;10195;50.868;4.382;2023-04-24T14:38:13;7.40;;;4.23;;